Terminal Aerodrome Forecast
Issued by NWS

Home | Current Version | Previous Version | Text Only | Print | Product List | Glossary On
Versions: 1 2 3 4 5 6 7 8 9 10 11 12 13 14 15 16 17 18 19 20 21 22 23 24 25 26 27
000
FTAK31 PAFA 251727
TAFATA
TAF
PATA 251727Z 2518/2618 13003KT P6SM BKN022 BKN045 OVC060
     FM252100 17011KT 2SM -SN BR SCT007 OVC015
     FM260000 17009KT 1/2SM SN FZFG OVC015
     FM261200 25007KT 4SM -SN BR OVC015=

USA.gov is the U.S. government's official web portal to all federal, state and local government web resources and services.